KCDH

Harrell Field Airport

Camden, Arkansas, USA
METAR KCDH 172215Z AUTO 16005KT 1 1/2SM RA FEW003 SCT036 BKN055 22/20 A3006 RMK AO2
Observed Flight Rules
Aug-17 @ 22:15 UTC (22 minutes ago) Instrument Flight Rules
Wind Visibility Clouds Conditions
160° at 5 knots 1 1/2 miles
  • Few at 300' AGL
  • Scattered at 3,600' AGL
  • Broken at 5,500' AGL
  • Rain
Temperatures Readings
Current 22°C / 72°F
Dewpoint 20°C / 68°F
Humidity 88%
Altimeter 30.06" Hg
Pressure 1018 hPa
Elevation 35
METAR KCDH 172215Z AUTO 16005KT 1 1/2SM RA FEW003 SCT036 BKN055 22/20 A3006 RMK AO2
Observed Flight Rules
Aug-17 @ 22:15 UTC
(22 minutes ago)
IFR
Wind Visibility
160° at 5 knots 1 1/2 miles
Clouds
  • Few at 300' AGL
  • Scattered at 3,600' AGL
  • Broken at 5,500' AGL
Conditions
  • Rain
Temperature Dewpoint
22°C / 72°F 20°C / 68°F
Humidity Altimeter Pressure
88% 30.06" Hg 1018 hPa